sensor_id;sensor_type;location;lat;lon;timestamp;temperature;humidity
12303;DHT22;6214;48.012;7.862;2023-03-14T00:02:26;11.80;99.90
12303;DHT22;6214;48.012;7.862;2023-03-14T00:04:54;11.90;99.90
12303;DHT22;6214;48.012;7.862;2023-03-14T00:07:22;11.80;99.90
12303;DHT22;6214;48.012;7.862;2023-03-14T00:09:51;11.80;99.90
12303;DHT22;6214;48.012;7.862;2023-03-14T00:12:18;11.90;99.90
12303;DHT22;6214;48.012;7.862;2023-03-14T00:14:45;11.90;99.90
12303;DHT22;6214;48.012;7.862;2023-03-14T00:17:12;11.90;99.90
12303;DHT22;6214;48.012;7.862;2023-03-14T00:19:40;11.90;99.90
12303;DHT22;6214;48.012;7.862;2023-03-14T00:22:07;11.90;99.90
12303;DHT22;6214;48.012;7.862;2023-03-14T00:24:34;11.80;99.90
12303;DHT22;6214;48.012;7.862;2023-03-14T00:27:01;11.80;99.90
12303;DHT22;6214;48.012;7.862;2023-03-14T00:29:28;11.90;99.90
12303;DHT22;6214;48.012;7.862;2023-03-14T00:31:55;12.00;99.90
12303;DHT22;6214;48.012;7.862;2023-03-14T00:34:22;12.00;99.90
12303;DHT22;6214;48.012;7.862;2023-03-14T00:36:49;12.10;99.90
12303;DHT22;6214;48.012;7.862;2023-03-14T00:39:16;12.20;99.90
12303;DHT22;6214;48.012;7.862;2023-03-14T00:41:43;12.30;99.90
12303;DHT22;6214;48.012;7.862;2023-03-14T00:44:09;12.40;99.90
12303;DHT22;6214;48.012;7.862;2023-03-14T00:46:36;12.40;99.90
12303;DHT22;6214;48.012;7.862;2023-03-14T00:49:06;12.50;99.90
12303;DHT22;6214;48.012;7.862;2023-03-14T00:51:33;12.50;99.90
12303;DHT22;6214;48.012;7.862;2023-03-14T00:54:00;12.50;99.90
12303;DHT22;6214;48.012;7.862;2023-03-14T00:56:27;12.60;99.90
12303;DHT22;6214;48.012;7.862;2023-03-14T00:58:55;12.60;99.90
12303;DHT22;6214;48.012;7.862;2023-03-14T01:01:22;12.60;99.90
12303;DHT22;6214;48.012;7.862;2023-03-14T01:03:53;12.50;99.90
12303;DHT22;6214;48.012;7.862;2023-03-14T01:06:26;12.50;99.90
12303;DHT22;6214;48.012;7.862;2023-03-14T01:08:54;12.50;99.90
12303;DHT22;6214;48.012;7.862;2023-03-14T01:11:22;12.40;99.90
12303;DHT22;6214;48.012;7.862;2023-03-14T01:13:50;12.40;99.90
12303;DHT22;6214;48.012;7.862;2023-03-14T01:16:18;12.40;99.90
12303;DHT22;6214;48.012;7.862;2023-03-14T01:18:46;12.50;99.90
12303;DHT22;6214;48.012;7.862;2023-03-14T01:21:25;12.50;99.90
12303;DHT22;6214;48.012;7.862;2023-03-14T01:23:54;12.60;99.90
12303;DHT22;6214;48.012;7.862;2023-03-14T01:26:23;12.60;99.90
12303;DHT22;6214;48.012;7.862;2023-03-14T01:28:53;12.70;99.90
12303;DHT22;6214;48.012;7.862;2023-03-14T01:31:20;12.70;99.90
12303;DHT22;6214;48.012;7.862;2023-03-14T01:33:47;12.70;99.90
12303;DHT22;6214;48.012;7.862;2023-03-14T01:36:14;12.60;99.90
12303;DHT22;6214;48.012;7.862;2023-03-14T01:38:41;12.40;99.90
12303;DHT22;6214;48.012;7.862;2023-03-14T01:41:17;12.30;99.90
12303;DHT22;6214;48.012;7.862;2023-03-14T01:43:44;12.30;99.90
12303;DHT22;6214;48.012;7.862;2023-03-14T01:48:57;12.20;99.90
12303;DHT22;6214;48.012;7.862;2023-03-14T01:57:19;12.10;99.90
12303;DHT22;6214;48.012;7.862;2023-03-14T01:59:54;12.00;99.90
12303;DHT22;6214;48.012;7.862;2023-03-14T02:02:24;12.00;99.90
12303;DHT22;6214;48.012;7.862;2023-03-14T02:04:54;12.00;99.90
12303;DHT22;6214;48.012;7.862;2023-03-14T02:09:59;12.00;99.90
12303;DHT22;6214;48.012;7.862;2023-03-14T02:12:27;12.00;99.90
12303;DHT22;6214;48.012;7.862;2023-03-14T02:14:54;12.10;99.90
12303;DHT22;6214;48.012;7.862;2023-03-14T02:17:22;12.00;99.90
12303;DHT22;6214;48.012;7.862;2023-03-14T02:22:44;12.10;99.90
12303;DHT22;6214;48.012;7.862;2023-03-14T02:28:33;12.10;99.90
12303;DHT22;6214;48.012;7.862;2023-03-14T02:31:00;12.10;99.90
12303;DHT22;6214;48.012;7.862;2023-03-14T02:33:27;12.20;99.90
12303;DHT22;6214;48.012;7.862;2023-03-14T02:36:03;12.20;99.90
12303;DHT22;6214;48.012;7.862;2023-03-14T02:41:06;12.30;99.90
12303;DHT22;6214;48.012;7.862;2023-03-14T02:43:33;12.40;99.90
12303;DHT22;6214;48.012;7.862;2023-03-14T02:46:01;12.40;99.90
12303;DHT22;6214;48.012;7.862;2023-03-14T02:51:00;12.40;99.90
12303;DHT22;6214;48.012;7.862;2023-03-14T02:53:33;12.40;99.90
12303;DHT22;6214;48.012;7.862;2023-03-14T02:56:00;13.10;99.90
12303;DHT22;6214;48.012;7.862;2023-03-14T02:58:27;12.40;99.90
12303;DHT22;6214;48.012;7.862;2023-03-14T03:00:55;12.30;99.90
12303;DHT22;6214;48.012;7.862;2023-03-14T03:03:22;12.50;99.90
12303;DHT22;6214;48.012;7.862;2023-03-14T03:05:53;12.40;99.90
12303;DHT22;6214;48.012;7.862;2023-03-14T03:08:23;12.40;99.90
12303;DHT22;6214;48.012;7.862;2023-03-14T03:10:50;12.40;99.90
12303;DHT22;6214;48.012;7.862;2023-03-14T03:13:18;12.40;99.90
12303;DHT22;6214;48.012;7.862;2023-03-14T03:15:45;12.50;99.90
12303;DHT22;6214;48.012;7.862;2023-03-14T03:18:12;12.40;99.90
12303;DHT22;6214;48.012;7.862;2023-03-14T03:20:39;12.40;99.90
12303;DHT22;6214;48.012;7.862;2023-03-14T03:23:06;12.40;99.90
12303;DHT22;6214;48.012;7.862;2023-03-14T03:25:34;12.40;99.90
12303;DHT22;6214;48.012;7.862;2023-03-14T03:28:01;12.40;99.90
12303;DHT22;6214;48.012;7.862;2023-03-14T03:30:28;12.40;99.90
12303;DHT22;6214;48.012;7.862;2023-03-14T03:32:55;12.30;99.90
12303;DHT22;6214;48.012;7.862;2023-03-14T03:35:22;12.30;99.90
12303;DHT22;6214;48.012;7.862;2023-03-14T03:37:49;12.40;99.90
12303;DHT22;6214;48.012;7.862;2023-03-14T03:40:16;12.50;99.90
12303;DHT22;6214;48.012;7.862;2023-03-14T03:42:43;12.60;99.90
12303;DHT22;6214;48.012;7.862;2023-03-14T03:45:10;12.60;99.90
12303;DHT22;6214;48.012;7.862;2023-03-14T03:47:37;12.50;99.90
12303;DHT22;6214;48.012;7.862;2023-03-14T03:50:04;12.50;99.90
12303;DHT22;6214;48.012;7.862;2023-03-14T03:52:31;12.50;99.90
12303;DHT22;6214;48.012;7.862;2023-03-14T03:54:58;12.60;99.90
12303;DHT22;6214;48.012;7.862;2023-03-14T03:57:25;12.50;99.90
12303;DHT22;6214;48.012;7.862;2023-03-14T03:59:52;12.40;99.90
12303;DHT22;6214;48.012;7.862;2023-03-14T04:02:19;12.40;99.90
12303;DHT22;6214;48.012;7.862;2023-03-14T04:04:46;12.40;99.90
12303;DHT22;6214;48.012;7.862;2023-03-14T04:07:13;12.40;99.90
12303;DHT22;6214;48.012;7.862;2023-03-14T04:09:40;12.40;99.90
12303;DHT22;6214;48.012;7.862;2023-03-14T04:12:07;12.40;99.90
12303;DHT22;6214;48.012;7.862;2023-03-14T04:14:34;12.40;99.90
12303;DHT22;6214;48.012;7.862;2023-03-14T04:17:01;12.40;99.90
12303;DHT22;6214;48.012;7.862;2023-03-14T04:19:28;12.50;99.90
12303;DHT22;6214;48.012;7.862;2023-03-14T04:21:55;12.50;99.90
12303;DHT22;6214;48.012;7.862;2023-03-14T04:24:21;12.50;99.90
12303;DHT22;6214;48.012;7.862;2023-03-14T04:26:48;12.50;99.90
12303;DHT22;6214;48.012;7.862;2023-03-14T04:29:15;12.40;99.90
12303;DHT22;6214;48.012;7.862;2023-03-14T04:31:42;12.40;99.90
12303;DHT22;6214;48.012;7.862;2023-03-14T04:34:09;12.50;99.90
12303;DHT22;6214;48.012;7.862;2023-03-14T04:36:36;12.50;99.90
12303;DHT22;6214;48.012;7.862;2023-03-14T04:39:05;12.50;99.90
12303;DHT22;6214;48.012;7.862;2023-03-14T04:41:32;12.50;99.90
12303;DHT22;6214;48.012;7.862;2023-03-14T04:43:59;12.40;99.90
12303;DHT22;6214;48.012;7.862;2023-03-14T04:46:26;12.40;99.90
12303;DHT22;6214;48.012;7.862;2023-03-14T04:48:53;12.40;99.90
12303;DHT22;6214;48.012;7.862;2023-03-14T04:51:20;12.40;99.90
12303;DHT22;6214;48.012;7.862;2023-03-14T04:53:49;12.40;99.90
12303;DHT22;6214;48.012;7.862;2023-03-14T04:56:16;12.30;99.90
12303;DHT22;6214;48.012;7.862;2023-03-14T04:58:43;12.30;99.90
12303;DHT22;6214;48.012;7.862;2023-03-14T05:01:11;12.40;99.90
12303;DHT22;6214;48.012;7.862;2023-03-14T05:03:38;12.40;99.90
12303;DHT22;6214;48.012;7.862;2023-03-14T05:06:05;12.30;99.90
12303;DHT22;6214;48.012;7.862;2023-03-14T05:08:32;12.40;99.90
12303;DHT22;6214;48.012;7.862;2023-03-14T05:10:59;12.40;99.90
12303;DHT22;6214;48.012;7.862;2023-03-14T05:13:26;12.50;99.90
12303;DHT22;6214;48.012;7.862;2023-03-14T05:15:52;12.50;99.90
12303;DHT22;6214;48.012;7.862;2023-03-14T05:18:21;12.40;99.90
12303;DHT22;6214;48.012;7.862;2023-03-14T05:20:50;12.30;99.90
12303;DHT22;6214;48.012;7.862;2023-03-14T05:23:18;12.40;99.90
12303;DHT22;6214;48.012;7.862;2023-03-14T05:25:45;12.30;99.90
12303;DHT22;6214;48.012;7.862;2023-03-14T05:28:12;12.40;99.90
12303;DHT22;6214;48.012;7.862;2023-03-14T05:30:40;12.40;99.90
12303;DHT22;6214;48.012;7.862;2023-03-14T05:33:06;12.60;99.90
12303;DHT22;6214;48.012;7.862;2023-03-14T05:35:33;12.50;99.90
12303;DHT22;6214;48.012;7.862;2023-03-14T05:38:00;12.50;99.90
12303;DHT22;6214;48.012;7.862;2023-03-14T05:40:27;12.40;99.90
12303;DHT22;6214;48.012;7.862;2023-03-14T05:42:54;12.60;99.90
12303;DHT22;6214;48.012;7.862;2023-03-14T05:45:21;12.60;99.90
12303;DHT22;6214;48.012;7.862;2023-03-14T05:47:48;12.70;99.90
12303;DHT22;6214;48.012;7.862;2023-03-14T05:50:15;12.70;99.90
12303;DHT22;6214;48.012;7.862;2023-03-14T05:52:42;12.70;99.90
12303;DHT22;6214;48.012;7.862;2023-03-14T05:55:09;12.70;99.90
12303;DHT22;6214;48.012;7.862;2023-03-14T05:57:36;12.80;99.90
12303;DHT22;6214;48.012;7.862;2023-03-14T06:00:03;12.80;99.90
12303;DHT22;6214;48.012;7.862;2023-03-14T06:02:30;12.80;99.90
12303;DHT22;6214;48.012;7.862;2023-03-14T06:04:57;12.80;99.90
12303;DHT22;6214;48.012;7.862;2023-03-14T06:07:24;12.90;99.90
12303;DHT22;6214;48.012;7.862;2023-03-14T06:09:53;12.80;99.90
12303;DHT22;6214;48.012;7.862;2023-03-14T06:12:20;12.90;99.90
12303;DHT22;6214;48.012;7.862;2023-03-14T06:14:47;12.80;99.90
12303;DHT22;6214;48.012;7.862;2023-03-14T06:17:15;12.90;99.90
12303;DHT22;6214;48.012;7.862;2023-03-14T06:19:41;12.90;99.90
12303;DHT22;6214;48.012;7.862;2023-03-14T06:22:08;13.00;99.90
12303;DHT22;6214;48.012;7.862;2023-03-14T06:24:35;13.00;99.90
12303;DHT22;6214;48.012;7.862;2023-03-14T06:27:02;13.00;99.90
12303;DHT22;6214;48.012;7.862;2023-03-14T06:29:30;13.10;99.90
12303;DHT22;6214;48.012;7.862;2023-03-14T06:31:57;13.00;99.90
12303;DHT22;6214;48.012;7.862;2023-03-14T06:34:24;13.00;99.90
12303;DHT22;6214;48.012;7.862;2023-03-14T06:36:51;13.00;99.90
12303;DHT22;6214;48.012;7.862;2023-03-14T06:39:17;13.10;99.90
12303;DHT22;6214;48.012;7.862;2023-03-14T06:41:44;13.00;99.90
12303;DHT22;6214;48.012;7.862;2023-03-14T06:44:11;13.10;99.90
12303;DHT22;6214;48.012;7.862;2023-03-14T06:46:38;13.20;99.90
12303;DHT22;6214;48.012;7.862;2023-03-14T06:49:05;13.30;99.90
12303;DHT22;6214;48.012;7.862;2023-03-14T06:51:33;13.40;99.90
12303;DHT22;6214;48.012;7.862;2023-03-14T06:53:59;13.50;99.90
12303;DHT22;6214;48.012;7.862;2023-03-14T06:56:26;13.80;99.90
12303;DHT22;6214;48.012;7.862;2023-03-14T06:58:53;14.00;99.90
12303;DHT22;6214;48.012;7.862;2023-03-14T07:01:28;14.10;99.90
12303;DHT22;6214;48.012;7.862;2023-03-14T07:03:56;14.10;99.90
12303;DHT22;6214;48.012;7.862;2023-03-14T07:06:24;14.20;99.90
12303;DHT22;6214;48.012;7.862;2023-03-14T07:08:51;14.20;99.90
12303;DHT22;6214;48.012;7.862;2023-03-14T07:11:18;14.30;99.90
12303;DHT22;6214;48.012;7.862;2023-03-14T07:13:45;14.30;99.90
12303;DHT22;6214;48.012;7.862;2023-03-14T07:16:12;14.40;99.90
12303;DHT22;6214;48.012;7.862;2023-03-14T07:18:39;14.30;99.90
12303;DHT22;6214;48.012;7.862;2023-03-14T07:21:07;14.20;99.90
12303;DHT22;6214;48.012;7.862;2023-03-14T07:23:35;14.30;99.90
12303;DHT22;6214;48.012;7.862;2023-03-14T07:26:02;14.30;99.90
12303;DHT22;6214;48.012;7.862;2023-03-14T07:28:29;14.30;99.90
12303;DHT22;6214;48.012;7.862;2023-03-14T07:30:57;14.50;99.90
12303;DHT22;6214;48.012;7.862;2023-03-14T07:33:24;14.60;99.90
12303;DHT22;6214;48.012;7.862;2023-03-14T07:35:50;14.70;99.90
12303;DHT22;6214;48.012;7.862;2023-03-14T07:38:18;14.80;99.90
12303;DHT22;6214;48.012;7.862;2023-03-14T07:40:48;14.80;99.90
12303;DHT22;6214;48.012;7.862;2023-03-14T07:43:15;14.50;99.90
12303;DHT22;6214;48.012;7.862;2023-03-14T07:45:45;14.40;99.90
12303;DHT22;6214;48.012;7.862;2023-03-14T07:48:16;14.50;99.90
12303;DHT22;6214;48.012;7.862;2023-03-14T07:50:43;14.30;99.90
12303;DHT22;6214;48.012;7.862;2023-03-14T07:53:10;14.20;99.90
12303;DHT22;6214;48.012;7.862;2023-03-14T07:55:39;14.10;99.90
12303;DHT22;6214;48.012;7.862;2023-03-14T07:58:06;14.10;99.90
12303;DHT22;6214;48.012;7.862;2023-03-14T08:00:33;14.10;99.90
12303;DHT22;6214;48.012;7.862;2023-03-14T08:03:00;14.20;99.90
12303;DHT22;6214;48.012;7.862;2023-03-14T08:05:27;14.10;99.90
12303;DHT22;6214;48.012;7.862;2023-03-14T08:07:54;14.10;99.90
12303;DHT22;6214;48.012;7.862;2023-03-14T08:10:21;14.10;99.90
12303;DHT22;6214;48.012;7.862;2023-03-14T08:12:50;14.10;99.90
12303;DHT22;6214;48.012;7.862;2023-03-14T08:15:17;14.10;99.90
12303;DHT22;6214;48.012;7.862;2023-03-14T08:17:44;14.00;99.90
12303;DHT22;6214;48.012;7.862;2023-03-14T08:20:11;14.00;99.90
12303;DHT22;6214;48.012;7.862;2023-03-14T08:22:39;14.00;99.90
12303;DHT22;6214;48.012;7.862;2023-03-14T08:25:06;13.90;99.90
12303;DHT22;6214;48.012;7.862;2023-03-14T08:27:33;13.80;99.90
12303;DHT22;6214;48.012;7.862;2023-03-14T08:30:00;13.70;99.90
12303;DHT22;6214;48.012;7.862;2023-03-14T08:32:27;13.70;99.90
12303;DHT22;6214;48.012;7.862;2023-03-14T08:34:54;13.60;99.90
12303;DHT22;6214;48.012;7.862;2023-03-14T08:37:22;13.40;99.90
12303;DHT22;6214;48.012;7.862;2023-03-14T08:39:53;13.30;99.90
12303;DHT22;6214;48.012;7.862;2023-03-14T08:42:20;13.40;99.90
12303;DHT22;6214;48.012;7.862;2023-03-14T08:44:47;13.40;99.90
12303;DHT22;6214;48.012;7.862;2023-03-14T08:47:14;13.30;99.90
12303;DHT22;6214;48.012;7.862;2023-03-14T08:49:41;13.40;99.90
12303;DHT22;6214;48.012;7.862;2023-03-14T08:52:08;13.60;99.90
12303;DHT22;6214;48.012;7.862;2023-03-14T08:54:35;13.80;99.90
12303;DHT22;6214;48.012;7.862;2023-03-14T08:57:02;14.00;99.90
12303;DHT22;6214;48.012;7.862;2023-03-14T08:59:29;14.10;99.90
12303;DHT22;6214;48.012;7.862;2023-03-14T09:01:56;14.10;99.90
12303;DHT22;6214;48.012;7.862;2023-03-14T09:04:23;14.10;99.90
12303;DHT22;6214;48.012;7.862;2023-03-14T09:06:50;14.30;99.90
12303;DHT22;6214;48.012;7.862;2023-03-14T09:09:16;14.50;99.90
12303;DHT22;6214;48.012;7.862;2023-03-14T09:11:43;14.50;99.90
12303;DHT22;6214;48.012;7.862;2023-03-14T09:14:10;14.50;99.90
12303;DHT22;6214;48.012;7.862;2023-03-14T09:16:37;14.50;99.90
12303;DHT22;6214;48.012;7.862;2023-03-14T09:19:04;14.50;99.90
12303;DHT22;6214;48.012;7.862;2023-03-14T09:21:32;14.50;99.90
12303;DHT22;6214;48.012;7.862;2023-03-14T09:23:59;14.50;99.90
12303;DHT22;6214;48.012;7.862;2023-03-14T09:26:26;14.40;99.90
12303;DHT22;6214;48.012;7.862;2023-03-14T09:28:53;14.30;99.90
12303;DHT22;6214;48.012;7.862;2023-03-14T09:31:22;14.30;99.90
12303;DHT22;6214;48.012;7.862;2023-03-14T09:33:49;14.20;99.90
12303;DHT22;6214;48.012;7.862;2023-03-14T09:36:17;14.20;99.90
12303;DHT22;6214;48.012;7.862;2023-03-14T09:38:43;14.10;99.90
12303;DHT22;6214;48.012;7.862;2023-03-14T09:41:32;14.10;99.90
12303;DHT22;6214;48.012;7.862;2023-03-14T09:46:35;13.90;99.90
12303;DHT22;6214;48.012;7.862;2023-03-14T09:49:20;13.80;99.90
12303;DHT22;6214;48.012;7.862;2023-03-14T09:51:51;13.70;99.90
12303;DHT22;6214;48.012;7.862;2023-03-14T09:55:13;13.70;99.90
12303;DHT22;6214;48.012;7.862;2023-03-14T09:57:34;13.60;99.90
12303;DHT22;6214;48.012;7.862;2023-03-14T10:00:06;13.60;99.90
12303;DHT22;6214;48.012;7.862;2023-03-14T10:02:43;13.50;99.90
12303;DHT22;6214;48.012;7.862;2023-03-14T10:05:18;13.60;99.90
12303;DHT22;6214;48.012;7.862;2023-03-14T10:07:46;13.60;99.90
12303;DHT22;6214;48.012;7.862;2023-03-14T10:10:21;13.50;99.90
12303;DHT22;6214;48.012;7.862;2023-03-14T10:12:58;13.30;99.90
12303;DHT22;6214;48.012;7.862;2023-03-14T10:15:35;13.30;99.90
12303;DHT22;6214;48.012;7.862;2023-03-14T10:18:04;13.30;99.90
12303;DHT22;6214;48.012;7.862;2023-03-14T10:20:40;13.30;99.90
12303;DHT22;6214;48.012;7.862;2023-03-14T10:25:42;13.40;99.90
12303;DHT22;6214;48.012;7.862;2023-03-14T10:30:51;13.40;99.90
12303;DHT22;6214;48.012;7.862;2023-03-14T10:33:22;13.50;99.90
12303;DHT22;6214;48.012;7.862;2023-03-14T10:36:05;13.30;99.90
12303;DHT22;6214;48.012;7.862;2023-03-14T10:38:35;13.40;99.90
12303;DHT22;6214;48.012;7.862;2023-03-14T10:41:18;13.40;99.90
12303;DHT22;6214;48.012;7.862;2023-03-14T10:43:50;13.30;99.90
12303;DHT22;6214;48.012;7.862;2023-03-14T10:46:19;13.30;99.90
12303;DHT22;6214;48.012;7.862;2023-03-14T10:48:47;13.30;99.90
12303;DHT22;6214;48.012;7.862;2023-03-14T10:51:24;13.30;99.90
12303;DHT22;6214;48.012;7.862;2023-03-14T10:54:11;13.50;99.90
12303;DHT22;6214;48.012;7.862;2023-03-14T10:56:39;13.30;99.90
12303;DHT22;6214;48.012;7.862;2023-03-14T10:59:14;13.50;99.90
12303;DHT22;6214;48.012;7.862;2023-03-14T11:01:48;13.50;99.90
12303;DHT22;6214;48.012;7.862;2023-03-14T11:10:17;13.50;99.90
12303;DHT22;6214;48.012;7.862;2023-03-14T11:15:40;13.20;99.90
12303;DHT22;6214;48.012;7.862;2023-03-14T11:21:15;13.70;99.90
12303;DHT22;6214;48.012;7.862;2023-03-14T11:26:53;13.40;99.90
12303;DHT22;6214;48.012;7.862;2023-03-14T11:29:35;13.50;99.90
12303;DHT22;6214;48.012;7.862;2023-03-14T11:32:12;13.30;99.90
12303;DHT22;6214;48.012;7.862;2023-03-14T11:34:48;13.10;99.90
12303;DHT22;6214;48.012;7.862;2023-03-14T11:40:18;12.00;99.90
12303;DHT22;6214;48.012;7.862;2023-03-14T11:43:04;11.20;99.90
12303;DHT22;6214;48.012;7.862;2023-03-14T11:45:35;10.80;99.90
12303;DHT22;6214;48.012;7.862;2023-03-14T11:50:50;10.80;99.90
12303;DHT22;6214;48.012;7.862;2023-03-14T11:53:25;11.10;99.90
12303;DHT22;6214;48.012;7.862;2023-03-14T11:55:56;11.50;99.90
12303;DHT22;6214;48.012;7.862;2023-03-14T11:58:25;11.60;99.90
12303;DHT22;6214;48.012;7.862;2023-03-14T12:00:54;11.80;99.90
12303;DHT22;6214;48.012;7.862;2023-03-14T12:03:43;12.20;99.90
12303;DHT22;6214;48.012;7.862;2023-03-14T12:06:30;12.00;99.90
12303;DHT22;6214;48.012;7.862;2023-03-14T12:09:04;12.00;99.90
12303;DHT22;6214;48.012;7.862;2023-03-14T12:11:58;12.30;99.90
12303;DHT22;6214;48.012;7.862;2023-03-14T12:14:36;12.30;99.90
12303;DHT22;6214;48.012;7.862;2023-03-14T12:17:17;12.20;99.90
12303;DHT22;6214;48.012;7.862;2023-03-14T12:19:45;12.20;99.90
12303;DHT22;6214;48.012;7.862;2023-03-14T12:24:59;12.40;99.90
12303;DHT22;6214;48.012;7.862;2023-03-14T12:27:43;12.70;99.90
12303;DHT22;6214;48.012;7.862;2023-03-14T12:35:47;13.60;99.90
12303;DHT22;6214;48.012;7.862;2023-03-14T12:43:54;14.40;99.90
12303;DHT22;6214;48.012;7.862;2023-03-14T12:48:54;15.00;99.90
12303;DHT22;6214;48.012;7.862;2023-03-14T12:51:35;15.10;99.90
12303;DHT22;6214;48.012;7.862;2023-03-14T12:54:19;15.40;99.90
12303;DHT22;6214;48.012;7.862;2023-03-14T12:59:35;14.60;99.90
12303;DHT22;6214;48.012;7.862;2023-03-14T13:03:00;13.70;99.90
12303;DHT22;6214;48.012;7.862;2023-03-14T13:05:05;13.20;99.90
12303;DHT22;6214;48.012;7.862;2023-03-14T13:16:00;12.10;99.90
12303;DHT22;6214;48.012;7.862;2023-03-14T13:21:22;12.10;99.90
12303;DHT22;6214;48.012;7.862;2023-03-14T13:24:23;12.30;99.90
12303;DHT22;6214;48.012;7.862;2023-03-14T13:26:55;12.40;99.90
12303;DHT22;6214;48.012;7.862;2023-03-14T13:29:32;12.40;99.90
12303;DHT22;6214;48.012;7.862;2023-03-14T13:32:02;12.40;99.90
12303;DHT22;6214;48.012;7.862;2023-03-14T13:34:33;12.40;99.90
12303;DHT22;6214;48.012;7.862;2023-03-14T13:37:00;12.30;99.90
12303;DHT22;6214;48.012;7.862;2023-03-14T13:39:28;12.20;99.90
12303;DHT22;6214;48.012;7.862;2023-03-14T13:42:00;12.30;99.90
12303;DHT22;6214;48.012;7.862;2023-03-14T13:44:31;12.30;99.90
12303;DHT22;6214;48.012;7.862;2023-03-14T13:47:00;12.50;99.90
12303;DHT22;6214;48.012;7.862;2023-03-14T13:49:29;12.40;99.90
12303;DHT22;6214;48.012;7.862;2023-03-14T13:51:59;12.40;99.90
12303;DHT22;6214;48.012;7.862;2023-03-14T13:54:26;12.20;99.90
12303;DHT22;6214;48.012;7.862;2023-03-14T13:57:04;12.40;99.90
12303;DHT22;6214;48.012;7.862;2023-03-14T13:59:33;12.60;99.90
12303;DHT22;6214;48.012;7.862;2023-03-14T14:02:04;12.50;99.90
12303;DHT22;6214;48.012;7.862;2023-03-14T14:04:36;12.50;99.90
12303;DHT22;6214;48.012;7.862;2023-03-14T14:07:14;12.60;99.90
12303;DHT22;6214;48.012;7.862;2023-03-14T14:09:48;12.50;99.90
12303;DHT22;6214;48.012;7.862;2023-03-14T14:12:30;12.50;99.90
12303;DHT22;6214;48.012;7.862;2023-03-14T14:17:41;12.20;99.90
12303;DHT22;6214;48.012;7.862;2023-03-14T14:20:39;12.20;99.90
12303;DHT22;6214;48.012;7.862;2023-03-14T14:23:11;12.00;99.90
12303;DHT22;6214;48.012;7.862;2023-03-14T14:25:39;12.00;99.90
12303;DHT22;6214;48.012;7.862;2023-03-14T14:28:26;11.90;99.90
12303;DHT22;6214;48.012;7.862;2023-03-14T14:31:05;11.80;99.90
12303;DHT22;6214;48.012;7.862;2023-03-14T14:33:56;11.90;99.90
12303;DHT22;6214;48.012;7.862;2023-03-14T14:36:38;12.30;99.90
12303;DHT22;6214;48.012;7.862;2023-03-14T14:39:20;12.60;99.90
12303;DHT22;6214;48.012;7.862;2023-03-14T14:41:49;12.70;99.90
12303;DHT22;6214;48.012;7.862;2023-03-14T14:44:28;12.90;99.90
12303;DHT22;6214;48.012;7.862;2023-03-14T14:46:55;13.20;99.90
12303;DHT22;6214;48.012;7.862;2023-03-14T14:49:31;13.10;99.90
12303;DHT22;6214;48.012;7.862;2023-03-14T14:52:09;13.30;99.90
12303;DHT22;6214;48.012;7.862;2023-03-14T14:57:20;13.00;99.90
12303;DHT22;6214;48.012;7.862;2023-03-14T14:59:49;12.70;99.90
12303;DHT22;6214;48.012;7.862;2023-03-14T15:02:45;12.50;99.90
12303;DHT22;6214;48.012;7.862;2023-03-14T15:05:22;12.40;99.90
12303;DHT22;6214;48.012;7.862;2023-03-14T15:07:50;12.60;99.90
12303;DHT22;6214;48.012;7.862;2023-03-14T15:10:19;12.90;99.90
12303;DHT22;6214;48.012;7.862;2023-03-14T15:12:47;12.90;99.90
12303;DHT22;6214;48.012;7.862;2023-03-14T15:15:15;12.80;99.90
12303;DHT22;6214;48.012;7.862;2023-03-14T15:17:42;12.70;99.90
12303;DHT22;6214;48.012;7.862;2023-03-14T15:20:15;12.90;99.90
12303;DHT22;6214;48.012;7.862;2023-03-14T15:22:42;12.80;99.90
12303;DHT22;6214;48.012;7.862;2023-03-14T15:25:10;12.70;99.90
12303;DHT22;6214;48.012;7.862;2023-03-14T15:27:57;12.70;99.90
12303;DHT22;6214;48.012;7.862;2023-03-14T15:30:24;12.60;99.90
12303;DHT22;6214;48.012;7.862;2023-03-14T15:32:51;12.50;99.90
12303;DHT22;6214;48.012;7.862;2023-03-14T15:35:18;12.60;99.90
12303;DHT22;6214;48.012;7.862;2023-03-14T15:37:45;12.80;99.90
12303;DHT22;6214;48.012;7.862;2023-03-14T15:40:13;13.10;99.90
12303;DHT22;6214;48.012;7.862;2023-03-14T15:42:41;12.90;99.90
12303;DHT22;6214;48.012;7.862;2023-03-14T15:45:08;12.70;99.90
12303;DHT22;6214;48.012;7.862;2023-03-14T15:47:35;12.60;99.90
12303;DHT22;6214;48.012;7.862;2023-03-14T15:50:03;12.50;99.90
12303;DHT22;6214;48.012;7.862;2023-03-14T15:52:30;12.40;99.90
12303;DHT22;6214;48.012;7.862;2023-03-14T15:54:57;12.20;99.90
12303;DHT22;6214;48.012;7.862;2023-03-14T15:57:24;12.10;99.90
12303;DHT22;6214;48.012;7.862;2023-03-14T15:59:51;12.00;99.90
12303;DHT22;6214;48.012;7.862;2023-03-14T16:02:18;11.90;99.90
12303;DHT22;6214;48.012;7.862;2023-03-14T16:04:45;12.00;99.90
12303;DHT22;6214;48.012;7.862;2023-03-14T16:07:12;11.90;99.90
12303;DHT22;6214;48.012;7.862;2023-03-14T16:09:39;11.90;99.90
12303;DHT22;6214;48.012;7.862;2023-03-14T16:12:06;12.00;99.90
12303;DHT22;6214;48.012;7.862;2023-03-14T16:14:35;12.00;99.90
12303;DHT22;6214;48.012;7.862;2023-03-14T16:17:02;12.00;99.90
12303;DHT22;6214;48.012;7.862;2023-03-14T16:19:29;12.10;99.90
12303;DHT22;6214;48.012;7.862;2023-03-14T16:21:57;12.00;99.90
12303;DHT22;6214;48.012;7.862;2023-03-14T16:24:24;12.00;99.90
12303;DHT22;6214;48.012;7.862;2023-03-14T16:26:51;12.10;99.90
12303;DHT22;6214;48.012;7.862;2023-03-14T16:29:18;12.10;99.90
12303;DHT22;6214;48.012;7.862;2023-03-14T16:31:45;12.00;99.90
12303;DHT22;6214;48.012;7.862;2023-03-14T16:34:13;11.60;99.90
12303;DHT22;6214;48.012;7.862;2023-03-14T16:36:40;11.10;99.90
12303;DHT22;6214;48.012;7.862;2023-03-14T16:39:07;10.90;99.90
12303;DHT22;6214;48.012;7.862;2023-03-14T16:41:34;10.80;99.90
12303;DHT22;6214;48.012;7.862;2023-03-14T16:44:01;10.80;99.90
12303;DHT22;6214;48.012;7.862;2023-03-14T16:46:28;10.80;99.90
12303;DHT22;6214;48.012;7.862;2023-03-14T16:48:56;10.90;99.90
12303;DHT22;6214;48.012;7.862;2023-03-14T16:51:23;10.90;99.90
12303;DHT22;6214;48.012;7.862;2023-03-14T16:53:50;11.00;99.90
12303;DHT22;6214;48.012;7.862;2023-03-14T16:56:17;11.10;99.90
12303;DHT22;6214;48.012;7.862;2023-03-14T16:58:45;10.90;99.90
12303;DHT22;6214;48.012;7.862;2023-03-14T17:01:13;10.80;99.90
12303;DHT22;6214;48.012;7.862;2023-03-14T17:03:45;10.80;99.90
12303;DHT22;6214;48.012;7.862;2023-03-14T17:06:21;10.90;99.90
12303;DHT22;6214;48.012;7.862;2023-03-14T17:08:50;10.90;99.90
12303;DHT22;6214;48.012;7.862;2023-03-14T17:11:17;10.80;99.90
12303;DHT22;6214;48.012;7.862;2023-03-14T17:13:44;10.90;99.90
12303;DHT22;6214;48.012;7.862;2023-03-14T17:16:12;10.90;99.90
12303;DHT22;6214;48.012;7.862;2023-03-14T17:18:39;11.00;99.90
12303;DHT22;6214;48.012;7.862;2023-03-14T17:21:06;10.80;99.90
12303;DHT22;6214;48.012;7.862;2023-03-14T17:23:33;10.50;99.90
12303;DHT22;6214;48.012;7.862;2023-03-14T17:26:01;10.20;99.90
12303;DHT22;6214;48.012;7.862;2023-03-14T17:28:28;10.10;99.90